Meteo Giornale » Osservazioni meteo Stati Uniti (USA) » Vineyard Haven Marthas

ore: 14:21 - Osservazioni Meteo Vineyard Haven Marthas
Lat. 41° 23' N Lon. 70° 37' W Alt. 20 metri s.l.m.

coperto_pioggia

16 °C

Pioggia

Temp. 24 Ore

16 °C

23 °C

Sud/Sud-Est

18.5 Km/h

Dew point 15 °C

Umidità 93 %

Visibilità  10 Km

Il sole sorge alle ore 06:09

Il sole tramonta alle ore 19:15

Data e Ora Cielo e Fenomeni T °C DP °C Um. % Pres. hPa Vis. km Vento km/h
Oggi h: 14:21 coperto_pioggia Pioggia 16 15 93 1018 10 S/SE 18.5
Oggi h: 14:05 coperto_pioggia Pioggia 16 15 93 1018 10 S/SE 16.7
Oggi h: 13:58 coperto_pioggia Pioggia 16 15 93 1018 10 S/SE 18.5
Oggi h: 13:53 coperto_pioggia Pioggia Foschia 16 15 93 1018 3 S/SE 16.7
Oggi h: 12:53 coperto_pioggia Pioggia 16 14 87 1017 10 S 20.3
Oggi h: 11:53 coperto_pioggia Pioggia 17 14 82 1018 10 S 18.5
Oggi h: 10:53 coperto_pioggia Pioggia 20 16 77 1018 10 E/SE 9.3
Oggi h: 09:53 coperto_pioggia Pioggia 20 17 82 1018 10 E/SE 7.4
Oggi h: 08:53 molto_nuvoloso Molto Nuvoloso 21 16 73 1017 10 SE 11.1
Oggi h: 07:53 coperto Coperto 21 17 77 1018 10 SE 7.4
Oggi h: 06:53 coperto Coperto 19 17 88 1017 10 N 0
Oggi h: 05:53 coperto Coperto 18 17 93 1017 10 N 5.5
Oggi h: 04:53 coperto Coperto 19 17 88 1017 10 N 0
Oggi h: 03:53 coperto Coperto 19 17 88 1017 10 N 0
Oggi h: 02:53 coperto Coperto 19 17 88 1018 10 N 5.5
Oggi h: 01:53 coperto Coperto 18 16 88 1018 10 N 0
Oggi h: 00:53 coperto Coperto 17 16 93 1018 10 N 5.5
Ieri h: 23:53 molto_nuvoloso Molto Nuvoloso 18 15 82 1018 10 N 0
Ieri h: 22:53 coperto Coperto 19 14 72 1019 10 S 7.4
Ieri h: 21:53 coperto Coperto 19 15 77 1019 10 S/SE 11.1
Ieri h: 20:53 coperto Coperto 19 15 77 1019 10 S/SE 9.3
Ieri h: 19:53 molto_nuvoloso Molto Nuvoloso 19 16 82 1019 10 S 9.3
Ieri h: 18:53 molto_nuvoloso Molto Nuvoloso 19 16 82 1019 10 S/SE 7.4
Ieri h: 17:53 sereno Sereno 20 16 77 1019 10 S/SE 11.1
Ieri h: 16:53 sereno Sereno 21 17 77 1019 10 S/SE 14.8
Ieri h: 15:53 sereno Sereno 21 16 73 1019 10 SE 13
Ieri h: 14:53 sereno Sereno 23 14 56 1020 10 N 0